Camden, NC (27921)

11:50 AM EST on November 26, 2014 (GMT -0500)
KNCELIZA3 | Change Station
CLOSE
Current Station
Personal Weather Station
Location: Elizabeth City, NC
Elevation: 12 ft
Nearby Weather Stations

Elev 12 ft 36.24 °N, 76.22 °W | Updated 3 seconds ago

Heavy Rain
Heavy Rain
47.6 °F
Feels Like 43 °F
N
9.3
Wind Variable Wind from North
Gusts 14.0 mph

Today
High -- | Low -- °F
--% Chance of Precip.
Yesterday
High -- | Low -- °F
Precip. -- in
6:52 AM 4:50 PM
Waxing Crescent, 21% visible
Pressure 29.78 in
Visibility 2.5 miles
Clouds Mostly Cloudy 900 ft
Overcast 1900 ft
Windchill 43 °F
Dew Point 47 °F
Humidity 97%
Rainfall 1.25 in
Snow Depth Not available.
UV 1 out of 12
Pollen .10 out of 12
Air Quality Not available.
Flu Activity Not available.
METAR KECG 261554Z 33014G29KT 290V360 2 1/2SM +RA BKN009 OVC019 11/08 A2978 RMK AO2 PK WND 36029/1550 SLP085 P0020 T01110083

More Conditions Fewer Conditions

Pressure 29.78 in
Visibility 2.5 miles
Clouds Mostly Cloudy 900 ft
Overcast 1900 ft
Windchill 43 °F
Dew Point 47 °F
Humidity 97%
Rainfall 1.25 in
Snow Depth Not available.
UV 1 out of 12
Pollen .10 out of 12
Air Quality Not available.
Flu Activity Not available.
METAR KECG 261554Z 33014G29KT 290V360 2 1/2SM +RA BKN009 OVC019 11/08 A2978 RMK AO2 PK WND 36029/1550 SLP085 P0020 T01110083

More Conditions Fewer Conditions

10-Day Weather Forecast

Almanac

Astronomy

Nov. 26, 2014 Rise Set
Actual Time
Civil Twilight
Nautical Twilight
Astronomical Twilight
Moon
Length of Visible Light
Length of Day
Tomorrow will be .
, % of the Moon is Illuminated

Today's Extremes

State Highs State Lows

Community

WunderPhotos

Upload Photos

1,773,793 photos uploaded!

WunderBlogs® & News

Nearby

Air Quality

  Air Quality AQ Index Pollutant
Not available.

Snow Depth

Station Depth Elevation

Earthquake Activity

City Distance Mag. Time & Date
Minimum magnitude displayed is 2.5.

Coastal Water Temperatures

Place Temperature

Nearby Weather Stations